Time;durP1;ratioP1;P1;durP2;ratioP2;P2;SDS_P1;SDS_P2;PMS_P1;PMS_P2;Temp;Humidity;BMP_temperature;BMP_pressure;BME280_temperature;BME280_humidity;BME280_pressure;Samples;Min_cycle;Max_cycle;Signal;HPM_P1;HPM_P2
2022/12/09 00:00:50;;;;;;;23.27;12.00;;;;;;;;;;5073132;28;20021;-76
2022/12/09 00:03:15;;;;;;;25.08;12.52;;;;;;;;;;5072973;28;20028;-74
2022/12/09 00:05:41;;;;;;;21.23;11.80;;;;;;;;;;5073254;28;20479;-74
2022/12/09 00:08:06;;;;;;;25.48;12.05;;;;;;;;;;5073076;28;20067;-75
2022/12/09 00:10:32;;;;;;;23.95;11.98;;;;;;;;;;5073342;28;20111;-73
2022/12/09 00:12:59;;;;;;;24.40;12.57;;;;;;;;;;5072693;28;20070;-75
2022/12/09 00:15:25;;;;;;;27.90;13.20;;;;;;;;;;5072840;28;20020;-76
2022/12/09 00:17:50;;;;;;;25.92;13.07;;;;;;;;;;5072701;28;20028;-75
2022/12/09 00:20:15;;;;;;;28.38;12.82;;;;;;;;;;5072824;28;20024;-76
2022/12/09 00:22:41;;;;;;;27.50;12.85;;;;;;;;;;5072740;28;20520;-75
2022/12/09 00:25:07;;;;;;;31.00;12.55;;;;;;;;;;5072801;28;20020;-75
2022/12/09 00:27:32;;;;;;;32.00;14.63;;;;;;;;;;5072599;28;20131;-76
2022/12/09 00:29:57;;;;;;;25.30;13.52;;;;;;;;;;5072600;28;20029;-76
2022/12/09 00:32:23;;;;;;;26.60;13.95;;;;;;;;;;5071241;28;20020;-75
2022/12/09 00:34:48;;;;;;;25.88;13.45;;;;;;;;;;5072230;28;20060;-76
2022/12/09 00:37:13;;;;;;;27.60;13.93;;;;;;;;;;5072443;28;20021;-76
2022/12/09 00:39:39;;;;;;;24.35;12.88;;;;;;;;;;5072564;28;20036;-75
2022/12/09 00:42:04;;;;;;;26.60;13.43;;;;;;;;;;5072442;28;20024;-76
2022/12/09 00:44:30;;;;;;;27.67;12.82;;;;;;;;;;5071190;28;20036;-75
2022/12/09 00:46:55;;;;;;;26.08;12.80;;;;;;;;;;5072217;28;20024;-75
2022/12/09 00:49:20;;;;;;;26.95;12.95;;;;;;;;;;5072340;28;20029;-76
2022/12/09 00:51:46;;;;;;;31.88;13.68;;;;;;;;;;5072415;28;20023;-75
2022/12/09 00:54:11;;;;;;;30.13;13.77;;;;;;;;;;5072129;28;20118;-76
2022/12/09 00:56:37;;;;;;;31.00;13.52;;;;;;;;;;5072278;28;20411;-75
2022/12/09 00:59:02;;;;;;;25.40;12.70;;;;;;;;;;5072033;28;20472;-73
2022/12/09 01:01:28;;;;;;;27.80;13.57;;;;;;;;;;5072388;28;20029;-74
2022/12/09 01:03:54;;;;;;;29.83;14.13;;;;;;;;;;5071828;28;20031;-74
2022/12/09 01:06:22;;;;;;;28.52;13.38;;;;;;;;;;5072178;28;20509;-75
2022/12/09 01:08:47;;;;;;;27.02;14.50;;;;;;;;;;5071793;28;20587;-73
2022/12/09 01:11:19;;;;;;;26.00;12.48;;;;;;;;;;5071965;28;20021;-74
2022/12/09 01:13:45;;;;;;;27.17;12.93;;;;;;;;;;5070188;28;20036;-74
2022/12/09 01:16:19;;;;;;;27.70;13.20;;;;;;;;;;5071899;28;20028;-74
2022/12/09 01:18:44;;;;;;;26.38;12.73;;;;;;;;;;5071661;28;20490;-74
2022/12/09 01:21:10;;;;;;;31.30;13.15;;;;;;;;;;5071989;28;20104;-73
2022/12/09 01:23:35;;;;;;;31.80;13.82;;;;;;;;;;5071680;28;20020;-73
2022/12/09 01:26:03;;;;;;;26.83;13.25;;;;;;;;;;5071554;28;20056;-73
2022/12/09 01:28:28;;;;;;;30.58;13.82;;;;;;;;;;5071037;28;20067;-73
2022/12/09 01:30:54;;;;;;;31.90;13.23;;;;;;;;;;5071497;28;20594;-73
2022/12/09 01:33:19;;;;;;;27.88;13.43;;;;;;;;;;5071598;28;20020;-73
2022/12/09 01:35:44;;;;;;;30.17;14.05;;;;;;;;;;5071283;28;20041;-74
2022/12/09 01:38:10;;;;;;;32.58;15.07;;;;;;;;;;5071273;28;20439;-74
2022/12/09 01:40:35;;;;;;;30.08;14.45;;;;;;;;;;5071322;28;20035;-74
2022/12/09 01:43:01;;;;;;;28.92;14.23;;;;;;;;;;5070367;28;20460;-74
2022/12/09 01:45:29;;;;;;;27.50;13.70;;;;;;;;;;5071008;28;20074;-76
2022/12/09 01:48:04;;;;;;;31.85;14.43;;;;;;;;;;5069581;28;20498;-76
2022/12/09 01:50:32;;;;;;;27.80;13.30;;;;;;;;;;5071308;28;20032;-77
2022/12/09 01:52:57;;;;;;;25.23;13.00;;;;;;;;;;5071048;28;20527;-76
2022/12/09 01:55:23;;;;;;;27.75;13.55;;;;;;;;;;5071089;28;20021;-76
2022/12/09 01:57:49;;;;;;;27.38;13.65;;;;;;;;;;5070791;28;20086;-76
2022/12/09 02:00:14;;;;;;;27.27;13.55;;;;;;;;;;5070924;28;20025;-76
2022/12/09 02:02:43;;;;;;;27.73;13.68;;;;;;;;;;5070780;28;20098;-77
2022/12/09 02:05:10;;;;;;;28.20;13.68;;;;;;;;;;5070645;28;20047;-76
2022/12/09 02:07:36;;;;;;;29.05;14.07;;;;;;;;;;5070874;28;20416;-75
2022/12/09 02:10:08;;;;;;;29.42;12.90;;;;;;;;;;5070779;28;20107;-76
2022/12/09 02:12:48;;;;;;;26.58;13.38;;;;;;;;;;5069441;28;20027;-76
2022/12/09 02:15:26;;;;;;;26.42;13.90;;;;;;;;;;5070633;28;20021;-76
2022/12/09 02:17:58;;;;;;;27.30;13.27;;;;;;;;;;5070555;28;20025;-75
2022/12/09 02:20:38;;;;;;;31.25;13.80;;;;;;;;;;5070464;28;20040;-76
2022/12/09 02:23:16;;;;;;;26.37;12.83;;;;;;;;;;5070386;28;20029;-75
2022/12/09 02:25:48;;;;;;;31.67;13.75;;;;;;;;;;5070522;28;20192;-78
2022/12/09 02:28:34;;;;;;;27.73;13.35;;;;;;;;;;5070446;28;20078;-75
2022/12/09 02:31:02;;;;;;;25.70;13.23;;;;;;;;;;5070733;28;20079;-76
2022/12/09 02:33:53;;;;;;;25.67;12.75;;;;;;;;;;5070741;28;20032;-76
2022/12/09 02:36:21;;;;;;;25.10;13.23;;;;;;;;;;5070166;28;20052;-77
2022/12/09 02:38:48;;;;;;;27.65;13.75;;;;;;;;;;5070253;28;20174;-76
2022/12/09 02:41:19;;;;;;;31.30;13.80;;;;;;;;;;5070280;28;20025;-77
2022/12/09 02:43:48;;;;;;;29.60;13.52;;;;;;;;;;5069865;28;20085;-76
2022/12/09 02:46:17;;;;;;;28.88;13.48;;;;;;;;;;5070302;28;20107;-76
2022/12/09 02:48:48;;;;;;;30.02;14.20;;;;;;;;;;5070196;28;20029;-77
2022/12/09 02:51:17;;;;;;;37.53;13.27;;;;;;;;;;5068822;28;20422;-76
2022/12/09 02:53:47;;;;;;;26.85;12.98;;;;;;;;;;5069344;28;20078;-76
2022/12/09 02:56:14;;;;;;;34.55;14.93;;;;;;;;;;5070030;28;20050;-77
2022/12/09 02:58:40;;;;;;;31.63;14.45;;;;;;;;;;5069738;28;20036;-75
2022/12/09 03:01:18;;;;;;;31.45;13.93;;;;;;;;;;5070191;28;20020;-75
2022/12/09 03:03:44;;;;;;;29.73;13.32;;;;;;;;;;5068567;28;20478;-75
2022/12/09 03:06:15;;;;;;;30.00;14.20;;;;;;;;;;5069975;28;20108;-75
2022/12/09 03:09:06;;;;;;;33.83;14.32;;;;;;;;;;5069795;28;20556;-76
2022/12/09 03:11:32;;;;;;;34.00;13.95;;;;;;;;;;5070001;28;20032;-75
2022/12/09 03:14:13;;;;;;;33.75;14.63;;;;;;;;;;5069522;28;20024;-75
2022/12/09 03:16:40;;;;;;;33.50;14.10;;;;;;;;;;5069779;28;20424;-74
2022/12/09 03:19:13;;;;;;;29.38;14.07;;;;;;;;;;5069683;28;20032;-74
2022/12/09 03:21:43;;;;;;;31.23;13.93;;;;;;;;;;5070013;28;20025;-74
2022/12/09 03:24:11;;;;;;;28.23;13.90;;;;;;;;;;5069568;28;20029;-73
2022/12/09 03:26:38;;;;;;;33.78;15.02;;;;;;;;;;5069754;28;20031;-74
2022/12/09 03:29:09;;;;;;;32.40;14.80;;;;;;;;;;5068036;28;20040;-73
2022/12/09 03:31:36;;;;;;;36.83;13.52;;;;;;;;;;5069678;28;20016;-74
2022/12/09 03:34:05;;;;;;;30.27;13.95;;;;;;;;;;5069363;28;20032;-74
2022/12/09 03:36:36;;;;;;;31.92;14.93;;;;;;;;;;5069637;28;20104;-74
2022/12/09 03:39:06;;;;;;;30.17;14.15;;;;;;;;;;5069470;28;20412;-74
2022/12/09 03:41:32;;;;;;;30.02;13.95;;;;;;;;;;5069830;28;20104;-74
2022/12/09 03:44:03;;;;;;;32.90;14.13;;;;;;;;;;5069210;28;20021;-75
2022/12/09 03:46:29;;;;;;;30.33;13.48;;;;;;;;;;5069482;28;20034;-74
2022/12/09 03:48:56;;;;;;;35.72;14.65;;;;;;;;;;5069424;28;20036;-73
2022/12/09 03:51:39;;;;;;;30.42;14.25;;;;;;;;;;5069517;28;20488;-74
2022/12/09 03:54:11;;;;;;;32.40;14.13;;;;;;;;;;5069425;28;20032;-73
2022/12/09 03:56:44;;;;;;;31.95;14.05;;;;;;;;;;5069377;28;20032;-74
2022/12/09 03:59:11;;;;;;;30.08;14.27;;;;;;;;;;5069225;28;20031;-74
2022/12/09 04:01:40;;;;;;;30.95;14.05;;;;;;;;;;5069628;28;20028;-74
2022/12/09 04:04:07;;;;;;;32.30;14.23;;;;;;;;;;5069149;28;20028;-73
2022/12/09 04:06:32;;;;;;;29.60;14.27;;;;;;;;;;5071946;28;20476;-74
2022/12/09 04:08:57;;;;;;;29.83;14.52;;;;;;;;;;5073071;28;20055;-74
2022/12/09 04:11:23;;;;;;;30.77;13.73;;;;;;;;;;5073017;28;20095;-74
2022/12/09 04:13:48;;;;;;;29.52;14.25;;;;;;;;;;5073101;28;20029;-74
2022/12/09 04:16:16;;;;;;;32.83;14.32;;;;;;;;;;5072765;28;20020;-74
2022/12/09 04:18:42;;;;;;;30.67;13.80;;;;;;;;;;5072905;28;20021;-74
2022/12/09 04:21:09;;;;;;;30.25;13.80;;;;;;;;;;5072749;28;20426;-74
2022/12/09 04:23:34;;;;;;;29.95;13.85;;;;;;;;;;5072754;28;20021;-75
2022/12/09 04:26:00;;;;;;;30.08;13.85;;;;;;;;;;5072414;28;20669;-76
2022/12/09 04:28:25;;;;;;;34.72;14.57;;;;;;;;;;5072703;28;20025;-76
2022/12/09 04:30:50;;;;;;;27.80;13.88;;;;;;;;;;5072594;28;20081;-76
2022/12/09 04:33:16;;;;;;;30.60;14.27;;;;;;;;;;5072772;28;20416;-76
2022/12/09 04:35:41;;;;;;;28.75;14.55;;;;;;;;;;5072133;28;20048;-76
2022/12/09 04:38:07;;;;;;;31.98;14.40;;;;;;;;;;5072521;28;20218;-76
2022/12/09 04:40:32;;;;;;;30.73;14.00;;;;;;;;;;5072146;28;20025;-76
2022/12/09 04:42:58;;;;;;;34.10;14.80;;;;;;;;;;5072334;28;20031;-76
2022/12/09 04:45:23;;;;;;;34.15;15.93;;;;;;;;;;5072172;28;20021;-75
2022/12/09 04:47:49;;;;;;;28.75;14.07;;;;;;;;;;5072501;28;20039;-76
2022/12/09 04:50:15;;;;;;;32.38;14.73;;;;;;;;;;5072370;28;20108;-76
2022/12/09 04:52:41;;;;;;;29.73;14.35;;;;;;;;;;5072515;28;20318;-75
2022/12/09 04:55:07;;;;;;;30.00;14.15;;;;;;;;;;5071900;28;20054;-76
2022/12/09 04:57:32;;;;;;;29.65;14.32;;;;;;;;;;5072128;28;20024;-76
2022/12/09 04:59:57;;;;;;;30.55;14.43;;;;;;;;;;5071862;28;20032;-76
2022/12/09 05:02:23;;;;;;;31.98;14.45;;;;;;;;;;5072241;28;20025;-76
2022/12/09 05:04:48;;;;;;;31.95;14.68;;;;;;;;;;5072094;28;20033;-76
2022/12/09 05:07:14;;;;;;;29.52;14.18;;;;;;;;;;5071945;28;20024;-73
2022/12/09 05:09:39;;;;;;;30.67;13.90;;;;;;;;;;5072153;28;20074;-76
2022/12/09 05:12:05;;;;;;;33.35;14.40;;;;;;;;;;5071605;28;20489;-74
2022/12/09 05:14:30;;;;;;;35.45;15.20;;;;;;;;;;5072015;28;20036;-74
2022/12/09 05:16:56;;;;;;;27.88;14.35;;;;;;;;;;5070762;28;20412;-74
2022/12/09 05:19:21;;;;;;;28.27;13.57;;;;;;;;;;5071660;28;20108;-75
2022/12/09 05:21:47;;;;;;;31.38;14.57;;;;;;;;;;5071670;28;20024;-74
2022/12/09 05:24:13;;;;;;;32.30;14.57;;;;;;;;;;5071794;28;20021;-75
2022/12/09 05:26:38;;;;;;;30.35;14.70;;;;;;;;;;5071534;28;20078;-73
2022/12/09 05:29:04;;;;;;;31.85;14.63;;;;;;;;;;5071543;28;20024;-74
2022/12/09 05:31:29;;;;;;;32.20;14.48;;;;;;;;;;5071301;28;20032;-74
2022/12/09 05:33:55;;;;;;;31.15;14.07;;;;;;;;;;5071545;28;20020;-73
2022/12/09 05:36:24;;;;;;;29.02;14.10;;;;;;;;;;5071010;28;20052;-73
2022/12/09 05:38:50;;;;;;;31.38;14.32;;;;;;;;;;5071331;28;20046;-73
2022/12/09 05:41:16;;;;;;;28.15;14.32;;;;;;;;;;5071458;28;20032;-73
2022/12/09 05:43:42;;;;;;;29.63;14.70;;;;;;;;;;5071131;28;20409;-73
2022/12/09 05:46:08;;;;;;;31.13;14.38;;;;;;;;;;5070964;28;20028;-73
2022/12/09 05:48:34;;;;;;;32.22;14.88;;;;;;;;;;5071394;28;20468;-74
2022/12/09 05:51:06;;;;;;;31.52;14.38;;;;;;;;;;5070967;28;20116;-73
2022/12/09 05:53:32;;;;;;;31.10;14.43;;;;;;;;;;5071112;28;20104;-74
2022/12/09 05:55:57;;;;;;;32.08;14.75;;;;;;;;;;5070735;28;20214;-73
2022/12/09 05:58:23;;;;;;;35.10;16.02;;;;;;;;;;5071161;28;20079;-73
2022/12/09 06:00:48;;;;;;;34.55;15.82;;;;;;;;;;5070754;28;20032;-74
2022/12/09 06:03:14;;;;;;;34.17;15.85;;;;;;;;;;5069658;28;20538;-73
2022/12/09 06:05:40;;;;;;;37.03;16.48;;;;;;;;;;5070581;28;20036;-74
2022/12/09 06:08:06;;;;;;;41.42;18.15;;;;;;;;;;5070787;28;20048;-73
2022/12/09 06:10:31;;;;;;;50.67;22.40;;;;;;;;;;5070719;28;20552;-75
2022/12/09 06:12:57;;;;;;;61.28;25.15;;;;;;;;;;5070640;28;20028;-74
2022/12/09 06:15:23;;;;;;;55.92;23.48;;;;;;;;;;5070865;28;20035;-74
2022/12/09 06:17:49;;;;;;;45.30;19.30;;;;;;;;;;5070538;28;20033;-74
2022/12/09 06:20:15;;;;;;;43.40;17.20;;;;;;;;;;5070719;28;20028;-73
2022/12/09 06:22:40;;;;;;;41.47;17.42;;;;;;;;;;5070283;28;20070;-74
2022/12/09 06:25:06;;;;;;;41.60;17.15;;;;;;;;;;5070394;28;20029;-74
2022/12/09 06:27:31;;;;;;;44.20;17.20;;;;;;;;;;5069974;28;20031;-74
2022/12/09 06:29:57;;;;;;;41.13;17.02;;;;;;;;;;5070470;28;20024;-74
2022/12/09 06:32:22;;;;;;;43.92;17.80;;;;;;;;;;5070412;28;20111;-75
2022/12/09 06:34:47;;;;;;;42.33;17.77;;;;;;;;;;5068887;28;20048;-74
2022/12/09 06:37:16;;;;;;;47.08;18.52;;;;;;;;;;5070108;28;20021;-74
2022/12/09 06:39:42;;;;;;;42.45;17.65;;;;;;;;;;5070334;28;20032;-74
2022/12/09 06:42:07;;;;;;;43.78;18.38;;;;;;;;;;5069821;28;20428;-73
2022/12/09 06:44:33;;;;;;;42.55;17.77;;;;;;;;;;5070010;28;20028;-74
2022/12/09 06:46:58;;;;;;;46.50;18.42;;;;;;;;;;5069940;28;20070;-74
2022/12/09 06:49:24;;;;;;;42.58;17.98;;;;;;;;;;5070332;28;20082;-73
2022/12/09 06:51:49;;;;;;;44.53;17.48;;;;;;;;;;5070046;28;20078;-73
2022/12/09 06:54:15;;;;;;;49.20;18.85;;;;;;;;;;5070165;28;20396;-74
2022/12/09 06:56:40;;;;;;;42.28;18.23;;;;;;;;;;5069851;28;20049;-73
2022/12/09 06:59:07;;;;;;;45.40;17.95;;;;;;;;;;5069817;28;20492;-73
2022/12/09 07:01:33;;;;;;;41.33;18.10;;;;;;;;;;5069693;28;20492;-74
2022/12/09 07:03:59;;;;;;;43.30;18.60;;;;;;;;;;5070112;28;20082;-74
2022/12/09 07:06:33;;;;;;;48.35;18.67;;;;;;;;;;5069853;28;20120;-73
2022/12/09 07:09:01;;;;;;;50.60;18.27;;;;;;;;;;5070048;28;20492;-73
2022/12/09 07:11:26;;;;;;;44.50;18.05;;;;;;;;;;5069883;28;20430;-74
2022/12/09 07:13:52;;;;;;;50.80;18.75;;;;;;;;;;5069862;28;20028;-74
2022/12/09 07:16:17;;;;;;;51.97;18.40;;;;;;;;;;5069374;28;20378;-74
2022/12/09 07:18:43;;;;;;;49.67;18.95;;;;;;;;;;5069405;28;20036;-72
2022/12/09 07:21:11;;;;;;;45.75;18.40;;;;;;;;;;5069607;28;20028;-75
2022/12/09 07:23:36;;;;;;;44.95;18.95;;;;;;;;;;5069559;28;20107;-75
2022/12/09 07:26:04;;;;;;;46.75;18.58;;;;;;;;;;5069905;28;20572;-74
2022/12/09 07:28:30;;;;;;;46.33;18.00;;;;;;;;;;5069664;28;20024;-75
2022/12/09 07:30:56;;;;;;;42.90;16.20;;;;;;;;;;5069612;28;20484;-73
2022/12/09 07:33:21;;;;;;;42.60;16.52;;;;;;;;;;5069209;28;20032;-75
2022/12/09 07:35:47;;;;;;;43.08;17.42;;;;;;;;;;5069528;28;20037;-73
2022/12/09 07:38:12;;;;;;;39.40;16.55;;;;;;;;;;5069509;28;20017;-73
2022/12/09 07:40:39;;;;;;;40.83;17.17;;;;;;;;;;5071125;28;20435;-73
2022/12/09 07:43:06;;;;;;;41.95;17.00;;;;;;;;;;5073224;28;20025;-74
2022/12/09 07:45:34;;;;;;;40.60;17.38;;;;;;;;;;5073899;28;20443;-75
2022/12/09 07:48:00;;;;;;;45.30;17.30;;;;;;;;;;5073221;28;20060;-74
2022/12/09 07:50:25;;;;;;;42.95;16.80;;;;;;;;;;5073552;28;20048;-74
2022/12/09 07:52:51;;;;;;;43.08;17.00;;;;;;;;;;5072989;28;20032;-73
2022/12/09 07:55:16;;;;;;;46.45;16.90;;;;;;;;;;5073296;28;20078;-73
2022/12/09 07:57:41;;;;;;;39.80;15.60;;;;;;;;;;5071657;28;20039;-73
2022/12/09 08:00:07;;;;;;;44.00;16.48;;;;;;;;;;5073446;28;20028;-74
2022/12/09 08:02:33;;;;;;;38.63;15.93;;;;;;;;;;5073007;28;20086;-73
2022/12/09 08:04:59;;;;;;;40.05;16.42;;;;;;;;;;5073329;28;20101;-73
2022/12/09 08:07:24;;;;;;;39.90;15.35;;;;;;;;;;5073063;28;20048;-73
2022/12/09 08:09:49;;;;;;;41.17;14.95;;;;;;;;;;5073173;28;20025;-73
2022/12/09 08:12:15;;;;;;;39.58;15.30;;;;;;;;;;5072482;28;20036;-74
2022/12/09 08:14:40;;;;;;;45.05;16.38;;;;;;;;;;5072983;28;20024;-73
2022/12/09 08:17:06;;;;;;;42.88;15.68;;;;;;;;;;5072924;28;20434;-73
2022/12/09 08:19:31;;;;;;;36.53;14.52;;;;;;;;;;5073036;28;20039;-73
2022/12/09 08:21:56;;;;;;;38.42;14.40;;;;;;;;;;5072528;28;20023;-74
2022/12/09 08:24:22;;;;;;;33.83;13.63;;;;;;;;;;5072967;28;20047;-73
2022/12/09 08:26:49;;;;;;;37.40;13.65;;;;;;;;;;5072606;28;20032;-73
2022/12/09 08:29:15;;;;;;;32.08;13.35;;;;;;;;;;5072416;28;20174;-73
2022/12/09 08:31:41;;;;;;;32.47;12.80;;;;;;;;;;5072449;28;20111;-74
2022/12/09 08:34:06;;;;;;;29.60;12.30;;;;;;;;;;5072299;28;20105;-73
2022/12/09 08:36:32;;;;;;;29.90;12.48;;;;;;;;;;5072788;28;20488;-73
2022/12/09 08:39:00;;;;;;;30.13;12.13;;;;;;;;;;5072485;28;20037;-73
2022/12/09 08:41:34;;;;;;;30.23;12.20;;;;;;;;;;5072434;28;20476;-75
2022/12/09 08:44:05;;;;;;;26.60;11.30;;;;;;;;;;5071795;28;20105;-75
2022/12/09 08:46:32;;;;;;;25.10;10.18;;;;;;;;;;5071014;28;20035;-74
2022/12/09 08:49:00;;;;;;;23.13;10.10;;;;;;;;;;5072254;28;20021;-74
2022/12/09 08:51:27;;;;;;;27.33;11.68;;;;;;;;;;5071593;28;20078;-76
2022/12/09 08:53:52;;;;;;;25.25;11.38;;;;;;;;;;5071713;28;20016;-76
2022/12/09 08:56:18;;;;;;;26.25;11.18;;;;;;;;;;5072453;28;20023;-74
2022/12/09 08:58:43;;;;;;;24.10;11.07;;;;;;;;;;5071879;28;20028;-74
2022/12/09 09:01:30;;;;;;;21.17;9.90;;;;;;;;;;5071893;28;20024;-74
2022/12/09 09:03:57;;;;;;;22.60;10.43;;;;;;;;;;5071864;28;20016;-74
2022/12/09 09:06:22;;;;;;;18.52;8.45;;;;;;;;;;5072078;28;20494;-74
2022/12/09 09:08:47;;;;;;;19.27;8.55;;;;;;;;;;5071540;28;20024;-74
2022/12/09 09:11:16;;;;;;;17.90;8.02;;;;;;;;;;5072191;28;20021;-75
2022/12/09 09:13:43;;;;;;;18.27;8.07;;;;;;;;;;5071782;28;20511;-74
2022/12/09 09:16:14;;;;;;;19.45;7.97;;;;;;;;;;5071910;28;20528;-74
2022/12/09 09:18:40;;;;;;;18.20;8.80;;;;;;;;;;5072018;28;20424;-73
2022/12/09 09:21:07;;;;;;;19.23;8.85;;;;;;;;;;5071599;28;20503;-73
2022/12/09 09:23:33;;;;;;;21.35;9.55;;;;;;;;;;5071290;28;20090;-73
2022/12/09 09:25:58;;;;;;;31.23;13.48;;;;;;;;;;5071967;28;20447;-74
2022/12/09 09:28:24;;;;;;;37.67;14.80;;;;;;;;;;5071527;28;20445;-74
2022/12/09 09:30:57;;;;;;;34.22;14.93;;;;;;;;;;5071606;28;20028;-74
2022/12/09 09:33:22;;;;;;;34.95;14.30;;;;;;;;;;5071144;28;20507;-74
2022/12/09 09:35:57;;;;;;;31.60;13.85;;;;;;;;;;5071360;28;20044;-74
2022/12/09 09:38:23;;;;;;;33.13;14.00;;;;;;;;;;5071075;28;20112;-74
2022/12/09 09:40:48;;;;;;;33.75;13.43;;;;;;;;;;5071248;28;20493;-73
2022/12/09 09:43:16;;;;;;;30.95;13.77;;;;;;;;;;5071153;28;20028;-74
2022/12/09 09:45:43;;;;;;;28.10;13.13;;;;;;;;;;5071341;28;20050;-74
2022/12/09 09:48:14;;;;;;;33.28;14.00;;;;;;;;;;5071162;28;20488;-74
2022/12/09 09:50:50;;;;;;;30.17;13.50;;;;;;;;;;5071185;28;20024;-74
2022/12/09 09:53:29;;;;;;;24.95;11.68;;;;;;;;;;5070659;28;20054;-73
2022/12/09 09:56:21;;;;;;;28.75;12.55;;;;;;;;;;5069711;28;20032;-74
2022/12/09 09:59:16;;;;;;;27.95;12.88;;;;;;;;;;5070596;28;20020;-74
2022/12/09 10:01:48;;;;;;;25.50;12.05;;;;;;;;;;5069434;28;20048;-74
2022/12/09 10:04:24;;;;;;;24.02;11.85;;;;;;;;;;5070454;28;20027;-74
2022/12/09 10:07:29;;;;;;;20.77;9.15;;;;;;;;;;5071075;28;20664;-74
2022/12/09 10:09:59;;;;;;;18.40;8.93;;;;;;;;;;5070082;28;20037;-74
2022/12/09 10:13:01;;;;;;;19.57;9.47;;;;;;;;;;5070522;28;20021;-74
2022/12/09 10:15:35;;;;;;;18.15;9.23;;;;;;;;;;5070524;28;20346;-76
2022/12/09 10:18:26;;;;;;;17.77;9.70;;;;;;;;;;5070914;28;20519;-76
2022/12/09 10:20:51;;;;;;;20.17;9.95;;;;;;;;;;5070712;28;20056;-75
2022/12/09 10:23:19;;;;;;;18.05;10.02;;;;;;;;;;5070342;28;20063;-74
2022/12/09 10:25:55;;;;;;;20.75;10.80;;;;;;;;;;5070663;28;20103;-74
2022/12/09 10:28:24;;;;;;;19.15;9.80;;;;;;;;;;5069171;28;20126;-74
2022/12/09 10:30:52;;;;;;;28.15;13.10;;;;;;;;;;5070360;28;20033;-74
2022/12/09 10:33:24;;;;;;;24.00;11.20;;;;;;;;;;5070090;28;20032;-73
2022/12/09 10:35:49;;;;;;;23.75;10.10;;;;;;;;;;5070121;28;20055;-74
2022/12/09 10:38:17;;;;;;;20.90;9.82;;;;;;;;;;5070596;28;20104;-74
2022/12/09 10:40:46;;;;;;;19.38;9.30;;;;;;;;;;5070745;28;20082;-74
2022/12/09 10:43:34;;;;;;;21.52;11.18;;;;;;;;;;5068867;28;20024;-73
2022/12/09 10:46:01;;;;;;;26.75;11.10;;;;;;;;;;5070182;28;20024;-73
2022/12/09 10:48:49;;;;;;;22.33;11.10;;;;;;;;;;5070284;28;20040;-75
2022/12/09 10:51:20;;;;;;;21.80;10.30;;;;;;;;;;5070153;28;20034;-73
2022/12/09 10:53:52;;;;;;;21.85;10.38;;;;;;;;;;5069759;28;20039;-74
2022/12/09 10:56:22;;;;;;;20.70;10.43;;;;;;;;;;5070270;28;20111;-74
2022/12/09 10:58:47;;;;;;;20.77;10.00;;;;;;;;;;5070208;28;20036;-74
2022/12/09 11:01:14;;;;;;;20.60;10.45;;;;;;;;;;5070059;28;20036;-76
2022/12/09 11:03:52;;;;;;;19.42;9.95;;;;;;;;;;5069712;28;20420;-73
2022/12/09 11:06:21;;;;;;;17.48;9.65;;;;;;;;;;5069961;28;20440;-73
2022/12/09 11:08:53;;;;;;;17.85;9.38;;;;;;;;;;5069787;28;20249;-75
2022/12/09 11:11:18;;;;;;;17.60;9.90;;;;;;;;;;5069993;28;20036;-73
2022/12/09 11:13:44;;;;;;;17.10;9.77;;;;;;;;;;5069657;28;20024;-74
2022/12/09 11:16:10;;;;;;;17.67;10.35;;;;;;;;;;5069066;28;20082;-74
2022/12/09 11:18:42;;;;;;;18.85;9.82;;;;;;;;;;5069994;28;20032;-74
2022/12/09 11:21:29;;;;;;;18.00;9.70;;;;;;;;;;5069751;28;20032;-72
2022/12/09 11:23:54;;;;;;;20.50;10.00;;;;;;;;;;5069540;28;20063;-73
2022/12/09 11:26:22;;;;;;;18.55;9.88;;;;;;;;;;5069688;28;20056;-73
2022/12/09 11:29:03;;;;;;;20.45;10.25;;;;;;;;;;5069565;28;20649;-75
2022/12/09 11:31:33;;;;;;;19.83;10.52;;;;;;;;;;5070062;28;20029;-74
2022/12/09 11:34:02;;;;;;;21.55;10.95;;;;;;;;;;5069607;28;20029;-74
2022/12/09 11:36:33;;;;;;;19.83;10.45;;;;;;;;;;5069637;28;20041;-76
2022/12/09 11:39:24;;;;;;;19.92;10.90;;;;;;;;;;5069392;28;20020;-77
2022/12/09 11:42:12;;;;;;;23.27;11.57;;;;;;;;;;5069714;28;20024;-75
2022/12/09 11:44:48;;;;;;;19.45;10.70;;;;;;;;;;5069289;28;20033;-74
2022/12/09 11:47:21;;;;;;;20.73;10.95;;;;;;;;;;5069659;28;20033;-74
2022/12/09 11:49:54;;;;;;;21.02;10.02;;;;;;;;;;5069505;28;20405;-76
2022/12/09 11:52:26;;;;;;;16.98;9.68;;;;;;;;;;5069665;28;20035;-73
2022/12/09 11:55:02;;;;;;;27.60;10.77;;;;;;;;;;5069209;28;20108;-73
2022/12/09 11:57:56;;;;;;;21.45;10.07;;;;;;;;;;5069339;28;20195;-76
2022/12/09 12:00:26;;;;;;;19.30;10.35;;;;;;;;;;5046183;28;20053;-73
2022/12/09 12:02:59;;;;;;;19.08;10.30;;;;;;;;;;5069304;28;20545;-73
2022/12/09 12:05:46;;;;;;;19.10;9.35;;;;;;;;;;5069417;28;20020;-76
2022/12/09 12:08:34;;;;;;;19.23;10.05;;;;;;;;;;5069517;28;20033;-74
2022/12/09 12:11:11;;;;;;;16.60;10.07;;;;;;;;;;5069344;28;20115;-75
2022/12/09 12:13:43;;;;;;;18.80;9.85;;;;;;;;;;5069299;28;20031;-74
2022/12/09 12:16:36;;;;;;;17.27;9.68;;;;;;;;;;5069146;28;20113;-74
2022/12/09 12:19:36;;;;;;;16.88;9.68;;;;;;;;;;5069492;28;20423;-74
2022/12/09 12:22:10;;;;;;;18.05;9.30;;;;;;;;;;5069281;28;20021;-74
2022/12/09 12:25:04;;;;;;;18.85;9.73;;;;;;;;;;5069297;28;20033;-75
2022/12/09 12:28:03;;;;;;;23.60;11.95;;;;;;;;;;5071953;28;20029;-75
2022/12/09 12:30:57;;;;;;;22.15;11.55;;;;;;;;;;5072705;28;20543;-75
2022/12/09 12:33:38;;;;;;;20.45;10.85;;;;;;;;;;5070609;28;20052;-76
2022/12/09 12:36:16;;;;;;;21.63;11.85;;;;;;;;;;5072326;28;20044;-76
2022/12/09 12:38:45;;;;;;;22.55;11.55;;;;;;;;;;5072765;28;20020;-76
2022/12/09 12:41:25;;;;;;;22.02;11.20;;;;;;;;;;5072409;28;20107;-76
2022/12/09 12:47:06;;;;;;;24.35;11.07;;;;;;;;;;5072432;28;20412;-76
2022/12/09 12:50:06;;;;;;;21.67;10.75;;;;;;;;;;5072459;28;20032;-75
2022/12/09 12:52:49;;;;;;;21.83;11.30;;;;;;;;;;5072157;28;20565;-76
2022/12/09 12:55:48;;;;;;;19.10;10.57;;;;;;;;;;5070854;28;20031;-75
2022/12/09 12:58:16;;;;;;;20.15;10.73;;;;;;;;;;5072279;28;20032;-76
2022/12/09 13:01:00;;;;;;;19.45;10.40;;;;;;;;;;5071900;28;20400;-76
2022/12/09 13:03:31;;;;;;;18.25;9.90;;;;;;;;;;5072189;28;20028;-76
2022/12/09 13:06:01;;;;;;;17.42;9.90;;;;;;;;;;5071953;28;20032;-76
2022/12/09 13:08:38;;;;;;;19.35;10.02;;;;;;;;;;5072088;28;20078;-78
2022/12/09 13:11:24;;;;;;;19.20;10.35;;;;;;;;;;5071759;28;20033;-74
2022/12/09 13:13:57;;;;;;;18.58;9.82;;;;;;;;;;5071860;28;20035;-76
2022/12/09 13:16:31;;;;;;;16.30;9.85;;;;;;;;;;5071918;28;20121;-77
2022/12/09 13:19:26;;;;;;;17.98;9.65;;;;;;;;;;5071907;28;20095;-76
2022/12/09 13:21:52;;;;;;;17.77;9.43;;;;;;;;;;5053607;28;20036;-76
2022/12/09 13:24:41;;;;;;;17.63;9.43;;;;;;;;;;5071618;28;20611;-76
2022/12/09 13:27:06;;;;;;;16.95;9.15;;;;;;;;;;5071266;28;20047;-76
2022/12/09 13:29:56;;;;;;;16.40;9.50;;;;;;;;;;5071761;28;20559;-76
2022/12/09 13:32:44;;;;;;;18.58;9.50;;;;;;;;;;5071591;28;20055;-76
2022/12/09 13:35:23;;;;;;;20.38;9.80;;;;;;;;;;5071102;28;20135;-75
2022/12/09 13:37:50;;;;;;;19.90;10.07;;;;;;;;;;5070874;28;20031;-75
2022/12/09 13:40:35;;;;;;;17.77;10.15;;;;;;;;;;5071364;28;20020;-74
2022/12/09 13:43:00;;;;;;;16.67;9.68;;;;;;;;;;5071316;28;20019;-77
2022/12/09 13:45:28;;;;;;;18.27;9.95;;;;;;;;;;5070837;28;20099;-78
2022/12/09 13:47:56;;;;;;;16.95;9.32;;;;;;;;;;5071120;28;20099;-77
2022/12/09 13:50:42;;;;;;;15.50;9.10;;;;;;;;;;5071515;28;20020;-77
2022/12/09 13:53:19;;;;;;;15.43;8.90;;;;;;;;;;5071373;28;20025;-77
2022/12/09 13:55:54;;;;;;;15.80;8.80;;;;;;;;;;5070943;28;20098;-75
2022/12/09 13:58:53;;;;;;;17.65;8.85;;;;;;;;;;5070855;28;20381;-77
2022/12/09 14:01:24;;;;;;;20.70;9.27;;;;;;;;;;5070615;28;20579;-77
2022/12/09 14:04:09;;;;;;;17.70;8.80;;;;;;;;;;5070766;28;20059;-77
2022/12/09 14:06:43;;;;;;;17.42;8.60;;;;;;;;;;5070746;28;20028;-77
2022/12/09 14:09:25;;;;;;;14.20;8.30;;;;;;;;;;5069716;28;20167;-78
2022/12/09 14:12:16;;;;;;;14.98;8.45;;;;;;;;;;5070805;28;20020;-74
2022/12/09 14:14:50;;;;;;;14.63;8.25;;;;;;;;;;5054591;28;20116;-74
2022/12/09 14:17:25;;;;;;;13.27;7.60;;;;;;;;;;5070328;28;20103;-75
2022/12/09 14:20:44;;;;;;;11.23;5.78;;;;;;;;;;5070581;28;20085;-77
2022/12/09 14:23:13;;;;;;;9.77;5.68;;;;;;;;;;5061304;28;20115;-75
2022/12/09 14:25:55;;;;;;;10.02;5.60;;;;;;;;;;5070503;28;20720;-73
2022/12/09 14:28:36;;;;;;;9.70;5.47;;;;;;;;;;5069214;28;20468;-74
2022/12/09 14:31:02;;;;;;;9.45;5.55;;;;;;;;;;5070632;28;20484;-73
2022/12/09 14:33:31;;;;;;;11.48;6.18;;;;;;;;;;5070326;28;20480;-75
2022/12/09 14:36:18;;;;;;;10.10;5.50;;;;;;;;;;5069991;28;20094;-74
2022/12/09 14:39:23;;;;;;;9.20;5.60;;;;;;;;;;5062740;28;20099;-75
2022/12/09 14:42:08;;;;;;;10.00;6.00;;;;;;;;;;5069055;28;20029;-74